Time;durP1;ratioP1;P1;durP2;ratioP2;P2;SDS_P1;SDS_P2;PMS_P1;PMS_P2;Temp;Humidity;BMP_temperature;BMP_pressure;BME280_temperature;BME280_humidity;BME280_pressure;Samples;Min_cycle;Max_cycle;Signal;HPM_P1;HPM_P2
2023/10/03 00:00:31;;;;;;;0.10;0.10;;;17.30;99.90;;;;;;5088519;28;20476;-83
2023/10/03 00:02:58;;;;;;;0.10;0.10;;;17.30;99.90;;;;;;5097663;28;20486;-84
2023/10/03 00:05:34;;;;;;;0.10;0.10;;;17.30;99.90;;;;;;5096782;28;20442;-82
2023/10/03 00:08:03;;;;;;;0.10;0.10;;;17.30;99.90;;;;;;5090061;28;20419;-83
2023/10/03 00:10:30;;;;;;;0.10;0.10;;;17.30;99.90;;;;;;5086069;28;20452;-83
2023/10/03 00:12:56;;;;;;;0.10;0.10;;;17.20;99.90;;;;;;5102384;28;20425;-83
2023/10/03 00:15:24;;;;;;;0.10;0.10;;;17.20;99.90;;;;;;5075142;28;20439;-83
2023/10/03 00:17:50;;;;;;;0.10;0.10;;;17.00;99.90;;;;;;5089005;28;20205;-83
2023/10/03 00:20:16;;;;;;;0.10;0.10;;;17.10;99.90;;;;;;5069283;28;20485;-83
2023/10/03 00:22:42;;;;;;;0.10;0.10;;;17.00;99.90;;;;;;5091786;28;20500;-83
2023/10/03 00:25:17;;;;;;;0.10;0.10;;;17.00;99.90;;;;;;5066889;28;21053;-83
2023/10/03 00:27:46;;;;;;;0.10;0.10;;;17.00;99.90;;;;;;5072833;28;20844;-83
2023/10/03 00:30:11;;;;;;;0.10;0.10;;;17.00;99.90;;;;;;5096739;28;20445;-81
2023/10/03 00:32:40;;;;;;;0.10;0.10;;;17.00;99.90;;;;;;5091988;28;20462;-83
2023/10/03 00:35:06;;;;;;;0.10;0.10;;;17.00;99.90;;;;;;5095773;28;20242;-83
2023/10/03 00:37:32;;;;;;;0.10;0.10;;;16.90;99.90;;;;;;5070615;28;21221;-82
2023/10/03 00:39:59;;;;;;;0.10;0.10;;;16.90;99.90;;;;;;5072226;28;20440;-83
2023/10/03 00:42:24;;;;;;;0.10;0.10;;;16.90;99.90;;;;;;5072490;28;20204;-83
2023/10/03 00:44:50;;;;;;;0.10;0.10;;;16.90;99.90;;;;;;5089529;28;20477;-82
2023/10/03 00:47:15;;;;;;;0.10;0.10;;;16.90;99.90;;;;;;5091910;28;20215;-82
2023/10/03 00:49:46;;;;;;;0.10;0.10;;;16.80;99.90;;;;;;5079111;28;20207;-81
2023/10/03 00:52:12;;;;;;;0.10;0.10;;;16.80;99.90;;;;;;5098645;28;20270;-83
2023/10/03 00:54:39;;;;;;;0.10;0.10;;;16.80;99.90;;;;;;5094186;28;20726;-82
2023/10/03 00:57:05;;;;;;;0.10;0.10;;;16.80;99.90;;;;;;5093642;28;20504;-81
2023/10/03 00:59:33;;;;;;;0.10;0.10;;;16.70;99.90;;;;;;5076319;28;21000;-83
2023/10/03 01:02:05;;;;;;;0.10;0.10;;;16.70;99.90;;;;;;5044681;28;20187;-81
2023/10/03 01:04:31;;;;;;;0.10;0.10;;;16.70;99.90;;;;;;5050269;28;20441;-82
2023/10/03 01:06:58;;;;;;;0.10;0.10;;;16.70;99.90;;;;;;5083817;28;20460;-83
2023/10/03 01:09:27;;;;;;;0.10;0.10;;;16.70;99.90;;;;;;5063869;28;20281;-83
2023/10/03 01:11:54;;;;;;;0.10;0.10;;;16.70;99.90;;;;;;5055170;28;20803;-83
2023/10/03 01:14:19;;;;;;;0.10;0.10;;;16.70;99.90;;;;;;5053017;28;20523;-82
2023/10/03 01:16:45;;;;;;;0.10;0.10;;;16.60;99.90;;;;;;5051417;28;20448;-81
2023/10/03 01:19:15;;;;;;;0.10;0.10;;;16.60;99.90;;;;;;5038893;28;20197;-83
2023/10/03 01:21:41;;;;;;;0.10;0.10;;;16.60;99.90;;;;;;5051395;28;20490;-80
2023/10/03 01:24:32;;;;;;;0.10;0.10;;;16.60;99.90;;;;;;5043155;28;20487;-82
2023/10/03 01:26:56;;;;;;;0.10;0.10;;;16.60;99.90;;;;;;5053138;28;20461;-82
2023/10/03 01:29:23;;;;;;;0.10;0.10;;;16.60;99.90;;;;;;5059353;28;20444;-82
2023/10/03 01:31:50;;;;;;;0.10;0.10;;;16.60;99.90;;;;;;5033850;28;20191;-81
2023/10/03 01:34:15;;;;;;;0.10;0.10;;;16.60;99.90;;;;;;5040689;28;20804;-83
2023/10/03 01:36:45;;;;;;;0.10;0.10;;;16.50;99.90;;;;;;5041314;28;20445;-82
2023/10/03 01:39:11;;;;;;;0.10;0.10;;;16.50;99.90;;;;;;5042498;28;20175;-82
2023/10/03 01:41:37;;;;;;;0.10;0.10;;;16.60;99.90;;;;;;5036718;28;20430;-82
2023/10/03 01:44:03;;;;;;;0.10;0.10;;;16.50;99.90;;;;;;5050110;28;20222;-82
2023/10/03 01:46:28;;;;;;;0.10;0.10;;;16.60;99.90;;;;;;5037297;28;20547;-82
2023/10/03 01:48:56;;;;;;;0.10;0.10;;;16.50;99.90;;;;;;5040920;28;20441;-82
2023/10/03 01:51:22;;;;;;;0.10;0.10;;;16.50;99.90;;;;;;5039461;28;20189;-83
2023/10/03 01:53:48;;;;;;;0.10;0.10;;;16.50;99.90;;;;;;5039302;28;20453;-82
2023/10/03 01:56:14;;;;;;;0.10;0.10;;;16.50;99.90;;;;;;5040409;28;20219;-83
2023/10/03 01:58:40;;;;;;;0.10;0.10;;;16.50;99.90;;;;;;5036801;28;20232;-83
2023/10/03 02:01:05;;;;;;;0.10;0.10;;;16.50;99.90;;;;;;5081383;28;20548;-82
2023/10/03 02:03:32;;;;;;;0.10;0.10;;;16.50;99.90;;;;;;5075432;28;20216;-82
2023/10/03 02:05:58;;;;;;;0.10;0.10;;;16.50;99.90;;;;;;5096968;28;20243;-82
2023/10/03 02:08:25;;;;;;;0.10;0.10;;;16.40;99.90;;;;;;5080652;28;20530;-83
2023/10/03 02:10:51;;;;;;;0.10;0.10;;;16.50;99.90;;;;;;5086006;28;20177;-82
2023/10/03 02:13:19;;;;;;;0.10;0.10;;;16.50;99.90;;;;;;5070063;28;20483;-81
2023/10/03 02:15:46;;;;;;;0.10;0.10;;;16.50;99.90;;;;;;5093753;28;20951;-82
2023/10/03 02:18:13;;;;;;;0.10;0.10;;;16.40;99.90;;;;;;5064854;28;20440;-82
2023/10/03 02:20:53;;;;;;;0.10;0.10;;;16.50;99.90;;;;;;5090545;28;20934;-83
2023/10/03 02:23:25;;;;;;;0.10;0.10;;;16.40;99.90;;;;;;5098714;28;20478;-83
2023/10/03 02:26:07;;;;;;;0.10;0.10;;;16.50;99.90;;;;;;5101435;28;20449;-81
2023/10/03 02:28:32;;;;;;;0.10;0.10;;;16.50;99.90;;;;;;5082003;28;20454;-81
2023/10/03 02:31:00;;;;;;;0.10;0.10;;;16.50;99.90;;;;;;5095409;28;20434;-83
2023/10/03 02:33:26;;;;;;;0.10;0.10;;;16.50;99.90;;;;;;5095138;28;20215;-81
2023/10/03 02:35:52;;;;;;;0.10;0.10;;;16.50;99.90;;;;;;5079994;28;20451;-83
2023/10/03 02:38:25;;;;;;;0.10;0.10;;;16.50;99.90;;;;;;5090069;28;20451;-81
2023/10/03 02:41:00;;;;;;;0.10;0.10;;;16.50;99.90;;;;;;5092694;28;20172;-82
2023/10/03 02:43:31;;;;;;;0.10;0.10;;;16.50;99.90;;;;;;5075702;28;20462;-80
2023/10/03 02:45:56;;;;;;;0.10;0.10;;;16.50;99.90;;;;;;5097477;28;20962;-82
2023/10/03 02:48:22;;;;;;;0.10;0.10;;;16.50;99.90;;;;;;5089209;28;20484;-82
2023/10/03 02:50:49;;;;;;;0.10;0.10;;;16.60;99.90;;;;;;5092724;28;20199;-83
2023/10/03 02:53:19;;;;;;;0.10;0.10;;;16.60;99.90;;;;;;5095859;28;20220;-84
2023/10/03 02:55:46;;;;;;;0.10;0.10;;;16.60;99.90;;;;;;5082805;28;20479;-82
2023/10/03 02:58:13;;;;;;;0.10;0.10;;;16.60;99.90;;;;;;5087918;28;20458;-82
2023/10/03 03:00:59;;;;;;;0.10;0.10;;;16.60;99.90;;;;;;5067478;28;20467;-82
2023/10/03 03:03:32;;;;;;;0.10;0.10;;;16.60;99.90;;;;;;5098583;28;20540;-81
2023/10/03 03:06:09;;;;;;;0.10;0.10;;;16.70;99.90;;;;;;5099885;28;20460;-81
2023/10/03 03:08:38;;;;;;;0.10;0.10;;;16.70;99.90;;;;;;5075244;28;20563;-81
2023/10/03 03:11:03;;;;;;;0.10;0.10;;;16.70;99.90;;;;;;5100072;27;20446;-82
2023/10/03 03:13:35;;;;;;;0.10;0.10;;;16.70;99.90;;;;;;5091970;28;20422;-82
2023/10/03 03:16:05;;;;;;;0.10;0.10;;;16.70;99.90;;;;;;5076683;28;20676;-84
2023/10/03 03:18:43;;;;;;;0.10;0.10;;;16.80;99.90;;;;;;5085469;28;20535;-84
2023/10/03 03:21:13;;;;;;;0.10;0.10;;;16.70;99.90;;;;;;5082271;28;20423;-84
2023/10/03 03:23:42;;;;;;;0.10;0.10;;;16.70;99.90;;;;;;5090181;28;20541;-82
2023/10/03 03:28:41;;;;;;;0.10;0.10;;;16.80;99.90;;;;;;5102964;28;20440;-84
2023/10/03 03:31:21;;;;;;;0.10;0.10;;;16.80;99.90;;;;;;5097019;28;20423;-83
2023/10/03 03:33:49;;;;;;;0.10;0.10;;;16.80;99.90;;;;;;5086980;28;20530;-83
2023/10/03 03:36:17;;;;;;;0.10;0.10;;;16.80;99.90;;;;;;5087573;28;20492;-84
2023/10/03 03:38:44;;;;;;;0.10;0.10;;;16.80;99.90;;;;;;5085882;28;20505;-83
2023/10/03 03:41:10;;;;;;;0.10;0.10;;;16.90;99.90;;;;;;5090757;28;20843;-83
2023/10/03 03:43:36;;;;;;;0.10;0.10;;;16.90;99.90;;;;;;5089793;28;20475;-83
2023/10/03 03:46:01;;;;;;;0.10;0.10;;;16.90;99.90;;;;;;5090479;28;20177;-82
2023/10/03 03:48:27;;;;;;;0.10;0.10;;;16.90;99.90;;;;;;5091024;28;20185;-84
2023/10/03 03:50:53;;;;;;;0.10;0.10;;;17.00;99.90;;;;;;5068280;28;20189;-83
2023/10/03 03:53:21;;;;;;;0.10;0.10;;;17.00;99.90;;;;;;5085603;28;20181;-83
2023/10/03 03:55:49;;;;;;;0.10;0.10;;;17.10;99.90;;;;;;5089409;28;20232;-83
2023/10/03 03:58:15;;;;;;;0.10;0.10;;;17.10;99.90;;;;;;5090221;28;20425;-83
2023/10/03 04:00:47;;;;;;;0.10;0.10;;;17.10;99.90;;;;;;5086350;28;20555;-82
2023/10/03 04:03:13;;;;;;;0.10;0.10;;;17.10;99.90;;;;;;5074743;28;20230;-84
2023/10/03 04:05:39;;;;;;;0.10;0.10;;;17.00;99.90;;;;;;5091690;28;20427;-82
2023/10/03 04:08:06;;;;;;;0.10;0.10;;;17.00;99.90;;;;;;5096034;28;20447;-83
2023/10/03 04:10:36;;;;;;;0.10;0.10;;;17.00;99.90;;;;;;5096042;28;20188;-82
2023/10/03 04:13:09;;;;;;;0.10;0.10;;;17.00;99.90;;;;;;5068867;28;20450;-82
2023/10/03 04:15:40;;;;;;;0.10;0.10;;;17.00;99.90;;;;;;5095963;28;20447;-83
2023/10/03 04:18:07;;;;;;;0.10;0.10;;;16.90;99.90;;;;;;5103952;28;20427;-84
2023/10/03 04:20:35;;;;;;;0.10;0.10;;;16.90;99.90;;;;;;5082800;28;20439;-82
2023/10/03 04:23:05;;;;;;;0.10;0.10;;;16.90;99.90;;;;;;5091413;28;20484;-83
2023/10/03 04:25:33;;;;;;;0.10;0.10;;;16.90;99.90;;;;;;5070977;28;20787;-82
2023/10/03 04:27:59;;;;;;;0.10;0.10;;;16.90;99.90;;;;;;5088418;28;21113;-83
2023/10/03 04:30:27;;;;;;;0.10;0.10;;;16.90;99.90;;;;;;5092764;28;20479;-82
2023/10/03 04:32:54;;;;;;;0.10;0.10;;;16.80;99.90;;;;;;5096600;28;20192;-82
2023/10/03 04:35:21;;;;;;;0.10;0.10;;;16.90;99.90;;;;;;5093213;28;20518;-81
2023/10/03 04:37:57;;;;;;;0.10;0.10;;;16.90;99.90;;;;;;5090929;28;20431;-82
2023/10/03 04:40:37;;;;;;;0.10;0.10;;;16.80;99.90;;;;;;5072513;28;20429;-82
2023/10/03 04:43:11;;;;;;;0.10;0.10;;;16.80;99.90;;;;;;5071723;28;20486;-82
2023/10/03 04:45:46;;;;;;;0.10;0.10;;;16.80;99.90;;;;;;5087815;28;20433;-82
2023/10/03 04:48:12;;;;;;;0.10;0.10;;;16.80;99.90;;;;;;5082965;28;20502;-82
2023/10/03 04:50:39;;;;;;;0.10;0.10;;;16.70;99.90;;;;;;5091714;28;20493;-83
2023/10/03 04:53:07;;;;;;;0.10;0.10;;;16.70;99.90;;;;;;5082237;28;20528;-83
2023/10/03 04:55:33;;;;;;;0.10;0.10;;;16.70;99.90;;;;;;5092228;28;20945;-83
2023/10/03 04:57:59;;;;;;;0.10;0.10;;;16.70;99.90;;;;;;5096991;28;20435;-83
2023/10/03 05:00:25;;;;;;;0.10;0.10;;;16.70;99.90;;;;;;5087203;28;20231;-83
2023/10/03 05:02:54;;;;;;;0.10;0.10;;;16.70;99.90;;;;;;5090099;28;20463;-83
2023/10/03 05:05:24;;;;;;;0.10;0.10;;;16.70;99.90;;;;;;5087089;28;20687;-82
2023/10/03 05:07:53;;;;;;;0.10;0.10;;;16.70;99.90;;;;;;5088580;28;20508;-82
2023/10/03 05:10:20;;;;;;;0.10;0.10;;;16.80;99.90;;;;;;5080216;28;20436;-82
2023/10/03 05:12:46;;;;;;;0.10;0.10;;;16.80;99.90;;;;;;5067505;28;20475;-82
2023/10/03 05:15:17;;;;;;;0.10;0.10;;;16.80;99.90;;;;;;5082104;28;20469;-84
2023/10/03 05:17:44;;;;;;;0.10;0.10;;;16.70;99.90;;;;;;5082887;28;20520;-82
2023/10/03 05:20:11;;;;;;;0.10;0.10;;;16.70;99.90;;;;;;5077239;28;20451;-83
2023/10/03 05:22:37;;;;;;;0.10;0.10;;;16.70;99.90;;;;;;5084287;28;20471;-82
2023/10/03 05:25:06;;;;;;;0.10;0.10;;;16.70;99.90;;;;;;5080924;28;20520;-82
2023/10/03 05:27:32;;;;;;;0.10;0.10;;;16.80;99.90;;;;;;5080576;28;20188;-82
2023/10/03 05:30:04;;;;;;;0.10;0.10;;;16.70;99.90;;;;;;5090211;28;20454;-83
2023/10/03 05:32:30;;;;;;;0.10;0.10;;;16.70;99.90;;;;;;5089702;28;20208;-83
2023/10/03 05:34:55;;;;;;;0.10;0.10;;;16.70;99.90;;;;;;5078644;28;20487;-82
2023/10/03 05:37:21;;;;;;;0.10;0.10;;;16.70;99.90;;;;;;5085427;28;20231;-82
2023/10/03 05:39:47;;;;;;;0.10;0.10;;;16.80;99.90;;;;;;5092332;28;20196;-83
2023/10/03 05:42:13;;;;;;;0.10;0.10;;;16.70;99.90;;;;;;5083787;28;20424;-82
2023/10/03 05:44:38;;;;;;;0.10;0.10;;;16.70;99.90;;;;;;5083024;28;20950;-82
2023/10/03 05:47:05;;;;;;;0.10;0.10;;;16.70;99.90;;;;;;5091457;28;20287;-82
2023/10/03 05:49:30;;;;;;;0.10;0.10;;;16.70;99.90;;;;;;5088098;28;20174;-82
2023/10/03 05:51:56;;;;;;;0.10;0.10;;;16.70;99.90;;;;;;5071576;28;20425;-81
2023/10/03 05:54:25;;;;;;;0.10;0.10;;;16.70;99.90;;;;;;5090320;28;20185;-82
2023/10/03 05:56:52;;;;;;;0.10;0.10;;;16.80;99.90;;;;;;5078407;28;20189;-82
2023/10/03 05:59:21;;;;;;;0.10;0.10;;;16.80;99.90;;;;;;5084097;28;20467;-81
2023/10/03 06:01:47;;;;;;;0.10;0.10;;;16.80;99.90;;;;;;5084771;28;20443;-82
2023/10/03 06:04:13;;;;;;;0.10;0.10;;;16.90;99.90;;;;;;5089093;28;20921;-82
2023/10/03 06:06:39;;;;;;;0.10;0.10;;;16.90;99.90;;;;;;5087725;28;20506;-83
2023/10/03 06:09:10;;;;;;;0.10;0.10;;;16.90;99.90;;;;;;5088056;28;20490;-84
2023/10/03 06:11:36;;;;;;;0.10;0.10;;;16.90;99.90;;;;;;5080861;28;20182;-83
2023/10/03 06:14:03;;;;;;;0.10;0.10;;;16.90;99.90;;;;;;5066876;28;20419;-83
2023/10/03 06:16:29;;;;;;;0.10;0.10;;;17.00;99.90;;;;;;5083552;28;20810;-82
2023/10/03 06:18:56;;;;;;;0.10;0.10;;;17.00;99.90;;;;;;5086765;28;21042;-84
2023/10/03 06:21:22;;;;;;;0.10;0.10;;;17.00;99.90;;;;;;5076377;28;20617;-83
2023/10/03 06:23:48;;;;;;;0.10;0.10;;;17.00;99.90;;;;;;5077081;28;21055;-82
2023/10/03 06:26:17;;;;;;;0.10;0.10;;;17.00;99.90;;;;;;5085332;28;20517;-80
2023/10/03 06:28:50;;;;;;;0.10;0.10;;;17.00;99.90;;;;;;5073756;28;20585;-84
2023/10/03 06:31:17;;;;;;;0.10;0.10;;;17.00;99.90;;;;;;5092558;28;20433;-83
2023/10/03 06:33:43;;;;;;;0.10;0.10;;;17.00;99.90;;;;;;5087324;28;20461;-82
2023/10/03 06:36:09;;;;;;;0.10;0.10;;;17.00;99.90;;;;;;5094188;28;20992;-82
2023/10/03 06:38:36;;;;;;;0.10;0.10;;;17.00;99.90;;;;;;5101923;28;20186;-83
2023/10/03 06:41:04;;;;;;;0.10;0.10;;;17.00;99.90;;;;;;5076041;28;20874;-84
2023/10/03 06:43:30;;;;;;;0.10;0.10;;;17.00;99.90;;;;;;5091592;28;20503;-83
2023/10/03 06:45:56;;;;;;;0.10;0.10;;;17.10;99.90;;;;;;5080230;28;20440;-84
2023/10/03 06:48:23;;;;;;;0.10;0.10;;;17.10;99.90;;;;;;5080592;28;20873;-85
2023/10/03 06:50:49;;;;;;;0.10;0.10;;;17.20;99.90;;;;;;5089051;28;20529;-84
2023/10/03 06:53:17;;;;;;;0.10;0.10;;;17.20;99.90;;;;;;5099766;28;20438;-83
2023/10/03 06:55:43;;;;;;;0.10;0.10;;;17.20;99.90;;;;;;5089691;28;20184;-82
2023/10/03 06:58:10;;;;;;;0.10;0.10;;;17.30;99.90;;;;;;5058069;28;20591;-83
2023/10/03 07:00:37;;;;;;;0.10;0.10;;;17.30;99.90;;;;;;5092900;28;20224;-84
2023/10/03 07:03:03;;;;;;;0.10;0.10;;;17.30;99.90;;;;;;5080203;28;20482;-83
2023/10/03 07:05:29;;;;;;;0.10;0.10;;;17.30;99.90;;;;;;5093215;28;20855;-84
2023/10/03 07:07:54;;;;;;;0.10;0.10;;;17.40;99.90;;;;;;5077605;28;21206;-82
2023/10/03 07:10:21;;;;;;;0.10;0.10;;;17.40;99.90;;;;;;5072628;28;20181;-82
2023/10/03 07:12:47;;;;;;;0.10;0.10;;;17.50;99.90;;;;;;5074590;28;20309;-83
2023/10/03 07:15:13;;;;;;;0.10;0.10;;;17.50;99.90;;;;;;5083126;28;20527;-82
2023/10/03 07:17:38;;;;;;;0.10;0.10;;;17.60;99.90;;;;;;5080297;28;20536;-81
2023/10/03 07:20:07;;;;;;;0.10;0.10;;;17.60;99.90;;;;;;5088518;28;20202;-82
2023/10/03 07:22:33;;;;;;;0.10;0.10;;;17.60;99.90;;;;;;5089368;28;20213;-83
2023/10/03 07:24:59;;;;;;;0.10;0.10;;;17.60;99.90;;;;;;5093698;28;20455;-84
2023/10/03 07:27:24;;;;;;;0.10;0.10;;;17.70;99.90;;;;;;5096596;28;20234;-83
2023/10/03 07:29:50;;;;;;;0.10;0.10;;;17.70;99.90;;;;;;5095920;28;20185;-83
2023/10/03 07:32:16;;;;;;;0.10;0.10;;;17.70;99.90;;;;;;5080013;28;20649;-83
2023/10/03 07:34:46;;;;;;;0.10;0.10;;;17.80;99.90;;;;;;5072871;28;20308;-82
2023/10/03 07:37:15;;;;;;;0.10;0.10;;;17.80;99.90;;;;;;5088746;28;20480;-82
2023/10/03 07:39:41;;;;;;;0.10;0.10;;;17.80;99.90;;;;;;5079772;28;20455;-82
2023/10/03 07:42:09;;;;;;;0.10;0.10;;;17.90;99.90;;;;;;5063314;28;20924;-84
2023/10/03 07:44:37;;;;;;;0.10;0.10;;;17.90;99.90;;;;;;5078596;28;20436;-83
2023/10/03 07:47:03;;;;;;;0.10;0.10;;;18.00;99.90;;;;;;5081270;28;21040;-83
2023/10/03 07:49:31;;;;;;;0.10;0.10;;;18.00;99.90;;;;;;5059760;28;20449;-83
2023/10/03 07:51:59;;;;;;;0.10;0.10;;;18.00;99.90;;;;;;5082453;28;20436;-82
2023/10/03 07:54:26;;;;;;;0.10;0.10;;;18.10;99.90;;;;;;5090173;28;20434;-85
2023/10/03 07:56:52;;;;;;;0.10;0.10;;;18.10;99.90;;;;;;5089788;28;20652;-84
2023/10/03 07:59:17;;;;;;;0.10;0.10;;;18.10;99.90;;;;;;5090011;28;20993;-85
2023/10/03 08:01:44;;;;;;;0.10;0.10;;;18.10;99.90;;;;;;5089900;28;20183;-83
2023/10/03 08:04:12;;;;;;;0.10;0.10;;;18.20;99.90;;;;;;5088708;28;20320;-82
2023/10/03 08:06:39;;;;;;;0.10;0.10;;;18.30;99.90;;;;;;5086561;28;21018;-82
2023/10/03 08:09:06;;;;;;;0.10;0.10;;;18.30;99.90;;;;;;5087948;28;20447;-82
2023/10/03 08:11:32;;;;;;;0.10;0.10;;;18.30;99.90;;;;;;5090042;28;20423;-84
2023/10/03 08:14:11;;;;;;;0.10;0.10;;;18.40;99.90;;;;;;5089314;28;21076;-85
2023/10/03 08:16:41;;;;;;;0.10;0.10;;;18.40;99.90;;;;;;5086979;28;20985;-82
2023/10/03 08:19:10;;;;;;;0.10;0.10;;;18.50;99.90;;;;;;5090021;28;20439;-80
2023/10/03 08:21:40;;;;;;;0.10;0.10;;;18.60;99.90;;;;;;5087059;28;20415;-80
2023/10/03 08:24:14;;;;;;;0.10;0.10;;;18.60;99.90;;;;;;5052985;28;20475;-79
2023/10/03 08:26:46;;;;;;;0.10;0.10;;;18.60;99.90;;;;;;5070554;28;20471;-80
2023/10/03 08:29:21;;;;;;;0.10;0.10;;;18.60;99.90;;;;;;5087923;28;20423;-80
2023/10/03 08:31:49;;;;;;;0.10;0.00;;;18.60;99.90;;;;;;5087686;28;20443;-81
2023/10/03 08:34:19;;;;;;;0.10;0.10;;;18.60;99.90;;;;;;5089817;28;20521;-80
2023/10/03 08:36:45;;;;;;;0.10;0.10;;;18.70;99.90;;;;;;5086725;28;20475;-80
2023/10/03 08:39:14;;;;;;;0.10;0.10;;;18.70;99.90;;;;;;5064737;28;20466;-82
2023/10/03 08:42:11;;;;;;;0.10;0.10;;;18.70;99.90;;;;;;5086958;28;20192;-80
2023/10/03 08:44:49;;;;;;;0.10;0.10;;;18.70;99.90;;;;;;5088192;28;20484;-81
2023/10/03 08:47:17;;;;;;;0.10;0.10;;;18.60;99.90;;;;;;5069853;28;20447;-79
2023/10/03 08:49:46;;;;;;;0.10;0.10;;;18.70;99.90;;;;;;5090621;28;20443;-80
2023/10/03 08:52:12;;;;;;;0.10;0.10;;;18.70;99.90;;;;;;5071346;28;20432;-81
2023/10/03 08:54:40;;;;;;;0.10;0.10;;;18.70;99.90;;;;;;5069875;28;21208;-81
2023/10/03 08:57:09;;;;;;;0.10;0.10;;;18.80;99.90;;;;;;5080796;28;20501;-79
2023/10/03 08:59:35;;;;;;;0.10;0.10;;;18.80;99.90;;;;;;5078216;28;20556;-81
2023/10/03 09:02:05;;;;;;;0.10;0.10;;;18.80;99.90;;;;;;5076641;28;20431;-81
2023/10/03 09:04:38;;;;;;;0.10;0.10;;;19.00;99.90;;;;;;5091343;28;20198;-82
2023/10/03 09:07:13;;;;;;;0.10;0.10;;;19.10;99.90;;;;;;5097246;28;20491;-80
2023/10/03 09:09:41;;;;;;;0.10;0.10;;;19.20;99.90;;;;;;5105248;28;21137;-80
2023/10/03 09:12:08;;;;;;;0.10;0.10;;;19.10;99.90;;;;;;5092675;28;20438;-81
2023/10/03 09:14:36;;;;;;;0.10;0.00;;;19.10;99.90;;;;;;5087810;28;20872;-83
2023/10/03 09:17:05;;;;;;;0.10;0.10;;;19.10;99.90;;;;;;5081232;28;20415;-81
2023/10/03 09:19:44;;;;;;;0.10;0.10;;;19.10;99.90;;;;;;5085506;28;20485;-81
2023/10/03 09:22:26;;;;;;;0.10;0.10;;;19.30;99.90;;;;;;5090169;28;20450;-80
2023/10/03 09:24:55;;;;;;;0.10;0.10;;;19.40;99.90;;;;;;5088146;28;20533;-84
2023/10/03 09:27:27;;;;;;;0.10;0.10;;;19.60;99.90;;;;;;5090150;28;20458;-84
2023/10/03 09:29:52;;;;;;;0.10;0.00;;;19.60;99.90;;;;;;5089290;28;20588;-80
2023/10/03 09:32:23;;;;;;;0.10;0.00;;;19.70;99.90;;;;;;5085202;28;20926;-82
2023/10/03 09:35:00;;;;;;;0.10;0.10;;;19.70;99.90;;;;;;5085474;28;20563;-83
2023/10/03 09:37:29;;;;;;;0.10;0.10;;;19.70;99.90;;;;;;5076963;28;20431;-85
2023/10/03 09:40:16;;;;;;;0.10;0.10;;;19.80;99.90;;;;;;5077802;28;20454;-83
2023/10/03 09:42:48;;;;;;;0.10;0.10;;;19.80;99.90;;;;;;5078450;28;20458;-83
2023/10/03 09:45:24;;;;;;;0.10;0.10;;;19.90;99.90;;;;;;5068337;28;20438;-82
2023/10/03 09:47:58;;;;;;;0.10;0.10;;;19.90;99.90;;;;;;5095812;28;20445;-82
2023/10/03 09:50:28;;;;;;;0.10;0.00;;;19.80;99.90;;;;;;5099504;28;20453;-81
2023/10/03 09:52:54;;;;;;;0.10;0.10;;;19.80;99.90;;;;;;5099920;28;20486;-79
2023/10/03 09:55:26;;;;;;;0.10;0.10;;;19.70;99.90;;;;;;5076287;28;20827;-80
2023/10/03 09:57:59;;;;;;;0.10;0.10;;;19.50;99.90;;;;;;5074725;28;20268;-80
2023/10/03 10:00:39;;;;;;;0.10;0.10;;;19.50;99.90;;;;;;5092970;28;20467;-82
2023/10/03 10:03:19;;;;;;;0.10;0.10;;;19.50;99.90;;;;;;5104762;28;20478;-81
2023/10/03 10:06:14;;;;;;;0.10;0.10;;;19.40;99.90;;;;;;5105559;28;20425;-81
2023/10/03 10:08:58;;;;;;;0.10;0.10;;;19.40;99.90;;;;;;5106810;28;20434;-81
2023/10/03 10:11:26;;;;;;;0.10;0.10;;;19.50;99.90;;;;;;5095604;28;20468;-81
2023/10/03 10:14:09;;;;;;;0.10;0.10;;;19.50;99.90;;;;;;5087167;28;20443;-80
2023/10/03 10:16:55;;;;;;;0.10;0.10;;;19.60;99.90;;;;;;5091428;28;20519;-82
2023/10/03 10:19:21;;;;;;;0.10;0.00;;;19.50;99.90;;;;;;5087303;28;20439;-81
2023/10/03 10:21:52;;;;;;;0.10;0.00;;;19.30;99.90;;;;;;5094833;28;21179;-84
2023/10/03 10:24:40;;;;;;;0.10;0.00;;;19.30;99.90;;;;;;5098460;28;20506;-85
2023/10/03 10:27:19;;;;;;;0.10;0.10;;;19.30;99.90;;;;;;5088822;28;20450;-80
2023/10/03 10:30:13;;;;;;;0.10;0.10;;;19.40;99.90;;;;;;5088920;28;21153;-83
2023/10/03 10:33:27;;;;;;;0.10;0.10;;;19.50;99.90;;;;;;5070505;28;20478;-84
2023/10/03 10:35:59;;;;;;;0.10;0.10;;;19.70;99.90;;;;;;5085043;28;20430;-81
2023/10/03 10:38:31;;;;;;;0.10;0.10;;;19.70;99.90;;;;;;5089035;28;20447;-85
2023/10/03 10:41:12;;;;;;;0.10;0.10;;;19.50;99.90;;;;;;5084232;28;20415;-82
2023/10/03 10:44:05;;;;;;;0.10;0.10;;;19.30;99.90;;;;;;5095971;28;20482;-83
2023/10/03 10:46:47;;;;;;;0.10;0.00;;;19.30;99.90;;;;;;5077805;28;20977;-84
2023/10/03 10:49:32;;;;;;;0.10;0.10;;;19.20;99.90;;;;;;5079493;28;20436;-82
2023/10/03 10:52:01;;;;;;;0.10;0.00;;;19.10;99.90;;;;;;5088860;28;20447;-83
2023/10/03 10:54:27;;;;;;;0.10;0.10;;;19.00;99.90;;;;;;5063056;28;20444;-84
2023/10/03 10:57:00;;;;;;;0.10;0.10;;;18.60;99.90;;;;;;5058287;28;20445;-82
2023/10/03 10:59:31;;;;;;;0.10;0.10;;;18.40;99.90;;;;;;5072461;28;20467;-84
2023/10/03 11:02:00;;;;;;;0.10;0.10;;;18.30;99.90;;;;;;5079461;28;20823;-83
2023/10/03 11:04:28;;;;;;;0.10;0.10;;;18.20;99.90;;;;;;5075533;28;20546;-83
2023/10/03 11:06:54;;;;;;;0.10;0.10;;;18.10;99.90;;;;;;5079649;28;20443;-81
2023/10/03 11:09:21;;;;;;;0.10;0.10;;;18.00;99.90;;;;;;5077738;28;20518;-83
2023/10/03 11:11:47;;;;;;;0.10;0.10;;;18.00;99.90;;;;;;5091547;28;20230;-82
2023/10/03 11:14:26;;;;;;;0.10;0.10;;;17.80;99.90;;;;;;5103412;28;20494;-83
2023/10/03 11:16:52;;;;;;;0.10;0.10;;;17.70;99.90;;;;;;5077912;28;20446;-82
2023/10/03 11:19:17;;;;;;;0.10;0.10;;;17.60;99.90;;;;;;5097576;28;20453;-83
2023/10/03 11:21:43;;;;;;;0.10;0.10;;;17.40;99.90;;;;;;5102239;28;20195;-81
2023/10/03 11:24:17;;;;;;;0.10;0.10;;;17.40;99.90;;;;;;5082985;28;20676;-81
2023/10/03 11:26:50;;;;;;;0.10;0.10;;;17.50;99.90;;;;;;5103246;28;20494;-83
2023/10/03 11:29:38;;;;;;;0.10;0.10;;;17.40;99.90;;;;;;5084405;28;20442;-82
2023/10/03 11:32:05;;;;;;;0.10;0.10;;;17.40;99.90;;;;;;5079410;28;20454;-83
2023/10/03 11:34:39;;;;;;;0.10;0.10;;;17.50;99.90;;;;;;5111216;28;20430;-82
2023/10/03 11:37:05;;;;;;;0.10;0.10;;;17.40;99.90;;;;;;5107883;28;20479;-83
2023/10/03 11:39:37;;;;;;;0.10;0.10;;;17.40;99.90;;;;;;5107097;28;20449;-83
2023/10/03 11:42:24;;;;;;;0.10;0.10;;;17.40;99.90;;;;;;5095499;28;20191;-83
2023/10/03 11:45:00;;;;;;;0.00;0.00;;;17.10;99.90;;;;;;5093495;28;20439;-82
2023/10/03 11:47:26;;;;;;;0.10;0.10;;;17.10;99.90;;;;;;5091345;28;20423;-82
2023/10/03 11:49:52;;;;;;;0.10;0.10;;;17.20;99.90;;;;;;5092827;28;20431;-81
2023/10/03 11:52:18;;;;;;;0.10;0.10;;;17.20;99.90;;;;;;5097755;28;20250;-82
2023/10/03 11:54:45;;;;;;;0.10;0.10;;;17.10;99.90;;;;;;5104028;28;20511;-83
2023/10/03 11:57:12;;;;;;;0.10;0.10;;;17.20;99.90;;;;;;5087337;28;20439;-83
2023/10/03 11:59:40;;;;;;;0.10;0.10;;;17.20;99.90;;;;;;5099329;28;20494;-82
2023/10/03 12:02:06;;;;;;;0.10;0.10;;;17.10;99.90;;;;;;5079131;28;20964;-81
2023/10/03 12:04:34;;;;;;;0.10;0.10;;;17.10;99.90;;;;;;5092477;28;20474;-82
2023/10/03 12:07:00;;;;;;;0.10;0.10;;;16.90;99.90;;;;;;5075507;28;20499;-83
2023/10/03 12:09:26;;;;;;;0.10;0.10;;;16.70;99.90;;;;;;5094094;28;20453;-81
2023/10/03 12:11:52;;;;;;;0.10;0.10;;;16.60;99.90;;;;;;5092076;28;21005;-81
2023/10/03 12:14:17;;;;;;;0.10;0.10;;;16.50;99.90;;;;;;5096583;28;20251;-82
2023/10/03 12:16:46;;;;;;;0.10;0.10;;;16.60;99.90;;;;;;5100837;28;20178;-84
2023/10/03 12:19:11;;;;;;;0.10;0.10;;;16.70;99.90;;;;;;5088205;28;20242;-82
2023/10/03 12:21:37;;;;;;;0.10;0.10;;;17.20;99.90;;;;;;5092694;28;20939;-83
2023/10/03 12:24:02;;;;;;;0.10;0.10;;;17.40;99.90;;;;;;5093845;28;20683;-82
2023/10/03 12:26:28;;;;;;;0.10;0.10;;;17.30;99.90;;;;;;5089414;28;20220;-83
2023/10/03 12:28:56;;;;;;;0.10;0.10;;;17.10;99.90;;;;;;5095374;28;20186;-82
2023/10/03 12:31:25;;;;;;;0.10;0.10;;;16.90;99.90;;;;;;5092170;28;20184;-82
2023/10/03 12:33:52;;;;;;;0.10;0.10;;;16.90;99.90;;;;;;5096404;28;20860;-82
2023/10/03 12:36:18;;;;;;;0.10;0.10;;;16.70;99.90;;;;;;5102019;28;20457;-83
2023/10/03 12:38:43;;;;;;;0.10;0.10;;;16.50;99.90;;;;;;5092260;28;20915;-82
2023/10/03 12:41:09;;;;;;;0.10;0.10;;;16.40;99.90;;;;;;5093176;28;20237;-82
2023/10/03 12:43:37;;;;;;;0.10;0.10;;;16.50;99.90;;;;;;5093950;28;20256;-82
2023/10/03 12:46:03;;;;;;;0.10;0.10;;;16.30;99.90;;;;;;5090135;28;21002;-82
2023/10/03 12:48:32;;;;;;;0.10;0.10;;;16.10;99.90;;;;;;5084696;28;20530;-81
2023/10/03 12:50:58;;;;;;;0.10;0.10;;;16.10;99.90;;;;;;5085348;28;20588;-82
2023/10/03 12:53:23;;;;;;;0.10;0.10;;;16.10;99.90;;;;;;5093901;28;20584;-83
2023/10/03 12:55:49;;;;;;;0.10;0.10;;;16.50;99.90;;;;;;5089768;28;20697;-82
2023/10/03 12:58:19;;;;;;;0.10;0.10;;;16.60;99.90;;;;;;5085372;28;20267;-80
2023/10/03 13:00:47;;;;;;;0.10;0.10;;;16.50;99.90;;;;;;5086356;28;20231;-81